sensor_id;sensor_type;location;lat;lon;timestamp;temperature;humidity
40257;DHT22;25977;45.462;9.210;2024-01-10T00:02:00;8.90;83.30
40257;DHT22;25977;45.462;9.210;2024-01-10T00:04:25;8.90;83.20
40257;DHT22;25977;45.462;9.210;2024-01-10T00:06:51;8.80;83.00
40257;DHT22;25977;45.462;9.210;2024-01-10T00:09:17;8.90;83.00
40257;DHT22;25977;45.462;9.210;2024-01-10T00:11:43;8.90;83.20
40257;DHT22;25977;45.462;9.210;2024-01-10T00:14:08;8.50;83.40
40257;DHT22;25977;45.462;9.210;2024-01-10T00:16:34;8.40;83.40
40257;DHT22;25977;45.462;9.210;2024-01-10T00:19:00;8.60;83.90
40257;DHT22;25977;45.462;9.210;2024-01-10T00:21:26;8.30;84.10
40257;DHT22;25977;45.462;9.210;2024-01-10T00:23:52;8.40;84.30
40257;DHT22;25977;45.462;9.210;2024-01-10T00:26:17;8.60;83.90
40257;DHT22;25977;45.462;9.210;2024-01-10T00:28:43;8.50;84.00
40257;DHT22;25977;45.462;9.210;2024-01-10T00:31:12;8.70;84.00
40257;DHT22;25977;45.462;9.210;2024-01-10T00:33:38;8.70;84.20
40257;DHT22;25977;45.462;9.210;2024-01-10T00:36:04;8.70;83.90
40257;DHT22;25977;45.462;9.210;2024-01-10T00:38:29;8.80;84.10
40257;DHT22;25977;45.462;9.210;2024-01-10T00:40:55;8.60;83.10
40257;DHT22;25977;45.462;9.210;2024-01-10T00:43:21;8.60;83.40
40257;DHT22;25977;45.462;9.210;2024-01-10T00:45:47;8.70;83.50
40257;DHT22;25977;45.462;9.210;2024-01-10T00:48:12;8.70;83.70
40257;DHT22;25977;45.462;9.210;2024-01-10T00:50:38;8.70;83.60
40257;DHT22;25977;45.462;9.210;2024-01-10T00:53:04;8.70;83.20
40257;DHT22;25977;45.462;9.210;2024-01-10T00:55:29;8.70;83.10
40257;DHT22;25977;45.462;9.210;2024-01-10T00:57:55;8.80;83.40
40257;DHT22;25977;45.462;9.210;2024-01-10T01:00:21;8.80;82.70
40257;DHT22;25977;45.462;9.210;2024-01-10T01:02:46;8.80;82.40
40257;DHT22;25977;45.462;9.210;2024-01-10T01:05:12;8.80;82.10
40257;DHT22;25977;45.462;9.210;2024-01-10T01:07:37;8.80;82.20
40257;DHT22;25977;45.462;9.210;2024-01-10T01:10:04;8.70;82.30
40257;DHT22;25977;45.462;9.210;2024-01-10T01:12:30;8.70;82.40
40257;DHT22;25977;45.462;9.210;2024-01-10T01:14:56;8.60;82.90
40257;DHT22;25977;45.462;9.210;2024-01-10T01:17:21;8.60;82.20
40257;DHT22;25977;45.462;9.210;2024-01-10T01:19:47;8.70;82.30
40257;DHT22;25977;45.462;9.210;2024-01-10T01:22:13;8.60;82.30
40257;DHT22;25977;45.462;9.210;2024-01-10T01:24:43;8.50;82.30
40257;DHT22;25977;45.462;9.210;2024-01-10T01:27:09;8.50;81.80
40257;DHT22;25977;45.462;9.210;2024-01-10T01:29:35;8.40;82.50
40257;DHT22;25977;45.462;9.210;2024-01-10T01:32:00;8.40;82.50
40257;DHT22;25977;45.462;9.210;2024-01-10T01:34:26;8.40;82.80
40257;DHT22;25977;45.462;9.210;2024-01-10T01:36:52;8.40;83.10
40257;DHT22;25977;45.462;9.210;2024-01-10T01:39:20;8.40;83.10
40257;DHT22;25977;45.462;9.210;2024-01-10T01:41:46;8.50;83.20
40257;DHT22;25977;45.462;9.210;2024-01-10T01:44:13;8.60;83.30
40257;DHT22;25977;45.462;9.210;2024-01-10T01:46:39;8.60;83.20
40257;DHT22;25977;45.462;9.210;2024-01-10T01:49:06;8.60;82.80
40257;DHT22;25977;45.462;9.210;2024-01-10T01:51:33;8.50;82.60
40257;DHT22;25977;45.462;9.210;2024-01-10T01:54:03;8.10;82.40
40257;DHT22;25977;45.462;9.210;2024-01-10T01:56:30;8.00;82.60
40257;DHT22;25977;45.462;9.210;2024-01-10T01:58:55;8.00;81.80
40257;DHT22;25977;45.462;9.210;2024-01-10T02:01:22;7.90;82.50
40257;DHT22;25977;45.462;9.210;2024-01-10T02:03:48;7.90;82.90
40257;DHT22;25977;45.462;9.210;2024-01-10T02:06:13;8.20;82.30
40257;DHT22;25977;45.462;9.210;2024-01-10T02:08:39;8.30;82.40
40257;DHT22;25977;45.462;9.210;2024-01-10T02:11:05;8.40;82.10
40257;DHT22;25977;45.462;9.210;2024-01-10T02:13:32;8.40;81.90
40257;DHT22;25977;45.462;9.210;2024-01-10T02:15:58;8.50;81.40
40257;DHT22;25977;45.462;9.210;2024-01-10T02:18:24;8.10;81.70
40257;DHT22;25977;45.462;9.210;2024-01-10T02:20:49;8.00;82.50
40257;DHT22;25977;45.462;9.210;2024-01-10T02:23:15;8.00;82.80
40257;DHT22;25977;45.462;9.210;2024-01-10T02:25:41;8.10;83.00
40257;DHT22;25977;45.462;9.210;2024-01-10T02:28:07;8.30;83.00
40257;DHT22;25977;45.462;9.210;2024-01-10T02:30:35;8.40;82.90
40257;DHT22;25977;45.462;9.210;2024-01-10T02:33:00;8.10;83.30
40257;DHT22;25977;45.462;9.210;2024-01-10T02:35:26;8.30;83.30
40257;DHT22;25977;45.462;9.210;2024-01-10T02:37:52;8.40;83.10
40257;DHT22;25977;45.462;9.210;2024-01-10T02:40:20;8.50;82.60
40257;DHT22;25977;45.462;9.210;2024-01-10T02:42:46;8.50;81.80
40257;DHT22;25977;45.462;9.210;2024-01-10T02:45:12;8.30;81.70
40257;DHT22;25977;45.462;9.210;2024-01-10T02:47:38;8.30;81.80
40257;DHT22;25977;45.462;9.210;2024-01-10T02:50:05;8.40;81.80
40257;DHT22;25977;45.462;9.210;2024-01-10T02:52:31;8.30;81.50
40257;DHT22;25977;45.462;9.210;2024-01-10T02:54:56;8.40;81.50
40257;DHT22;25977;45.462;9.210;2024-01-10T02:57:22;8.30;81.20
40257;DHT22;25977;45.462;9.210;2024-01-10T02:59:48;8.40;81.50
40257;DHT22;25977;45.462;9.210;2024-01-10T03:02:13;8.30;80.50
40257;DHT22;25977;45.462;9.210;2024-01-10T03:04:40;8.50;81.40
40257;DHT22;25977;45.462;9.210;2024-01-10T03:07:05;8.20;81.20
40257;DHT22;25977;45.462;9.210;2024-01-10T03:09:31;8.20;80.80
40257;DHT22;25977;45.462;9.210;2024-01-10T03:11:57;8.10;81.30
40257;DHT22;25977;45.462;9.210;2024-01-10T03:14:22;8.30;80.80
40257;DHT22;25977;45.462;9.210;2024-01-10T03:16:48;8.30;80.70
40257;DHT22;25977;45.462;9.210;2024-01-10T03:19:14;8.30;80.80
40257;DHT22;25977;45.462;9.210;2024-01-10T03:21:39;8.30;80.70
40257;DHT22;25977;45.462;9.210;2024-01-10T03:24:05;8.20;80.80
40257;DHT22;25977;45.462;9.210;2024-01-10T03:26:31;8.30;80.50
40257;DHT22;25977;45.462;9.210;2024-01-10T03:28:57;7.80;80.30
40257;DHT22;25977;45.462;9.210;2024-01-10T03:31:23;7.70;80.70
40257;DHT22;25977;45.462;9.210;2024-01-10T03:33:49;7.80;81.30
40257;DHT22;25977;45.462;9.210;2024-01-10T03:36:17;7.50;81.40
40257;DHT22;25977;45.462;9.210;2024-01-10T03:38:43;7.70;81.50
40257;DHT22;25977;45.462;9.210;2024-01-10T03:41:17;7.70;81.80
40257;DHT22;25977;45.462;9.210;2024-01-10T03:43:43;7.70;80.90
40257;DHT22;25977;45.462;9.210;2024-01-10T03:46:09;7.70;81.20
40257;DHT22;25977;45.462;9.210;2024-01-10T03:48:35;7.40;81.00
40257;DHT22;25977;45.462;9.210;2024-01-10T03:51:01;7.70;80.10
40257;DHT22;25977;45.462;9.210;2024-01-10T03:53:27;7.70;80.10
40257;DHT22;25977;45.462;9.210;2024-01-10T03:55:53;7.80;80.10
40257;DHT22;25977;45.462;9.210;2024-01-10T03:58:18;7.80;79.90
40257;DHT22;25977;45.462;9.210;2024-01-10T04:00:44;7.60;80.00
40257;DHT22;25977;45.462;9.210;2024-01-10T04:03:09;7.70;80.40
40257;DHT22;25977;45.462;9.210;2024-01-10T04:05:35;7.90;80.30
40257;DHT22;25977;45.462;9.210;2024-01-10T04:08:01;7.90;80.10
40257;DHT22;25977;45.462;9.210;2024-01-10T04:10:26;8.00;80.00
40257;DHT22;25977;45.462;9.210;2024-01-10T04:12:52;8.00;79.50
40257;DHT22;25977;45.462;9.210;2024-01-10T04:15:19;8.00;80.10
40257;DHT22;25977;45.462;9.210;2024-01-10T04:17:44;8.00;80.30
40257;DHT22;25977;45.462;9.210;2024-01-10T04:20:10;7.90;80.10
40257;DHT22;25977;45.462;9.210;2024-01-10T04:22:36;7.90;80.20
40257;DHT22;25977;45.462;9.210;2024-01-10T04:25:04;7.90;80.30
40257;DHT22;25977;45.462;9.210;2024-01-10T04:27:30;7.80;80.60
40257;DHT22;25977;45.462;9.210;2024-01-10T04:29:56;7.80;80.90
40257;DHT22;25977;45.462;9.210;2024-01-10T04:32:22;7.80;81.10
40257;DHT22;25977;45.462;9.210;2024-01-10T04:34:48;7.70;81.10
40257;DHT22;25977;45.462;9.210;2024-01-10T04:37:14;7.80;81.40
40257;DHT22;25977;45.462;9.210;2024-01-10T04:39:40;7.80;81.20
40257;DHT22;25977;45.462;9.210;2024-01-10T04:42:08;7.80;81.20
40257;DHT22;25977;45.462;9.210;2024-01-10T04:44:34;7.90;81.50
40257;DHT22;25977;45.462;9.210;2024-01-10T04:47:00;7.90;81.70
40257;DHT22;25977;45.462;9.210;2024-01-10T04:49:25;7.80;81.40
40257;DHT22;25977;45.462;9.210;2024-01-10T04:51:51;7.80;81.80
40257;DHT22;25977;45.462;9.210;2024-01-10T04:54:17;7.80;81.30
40257;DHT22;25977;45.462;9.210;2024-01-10T04:56:42;7.70;81.70
40257;DHT22;25977;45.462;9.210;2024-01-10T04:59:08;7.80;82.30
40257;DHT22;25977;45.462;9.210;2024-01-10T05:01:34;7.80;81.20
40257;DHT22;25977;45.462;9.210;2024-01-10T05:04:00;7.80;81.30
40257;DHT22;25977;45.462;9.210;2024-01-10T05:06:25;7.90;81.70
40257;DHT22;25977;45.462;9.210;2024-01-10T05:08:51;7.90;81.60
40257;DHT22;25977;45.462;9.210;2024-01-10T05:11:17;7.70;81.00
40257;DHT22;25977;45.462;9.210;2024-01-10T05:13:43;7.60;81.60
40257;DHT22;25977;45.462;9.210;2024-01-10T05:16:09;7.80;81.40
40257;DHT22;25977;45.462;9.210;2024-01-10T05:18:35;7.70;81.70
40257;DHT22;25977;45.462;9.210;2024-01-10T05:21:01;7.90;81.30
40257;DHT22;25977;45.462;9.210;2024-01-10T05:23:26;7.90;81.30
40257;DHT22;25977;45.462;9.210;2024-01-10T05:25:53;8.00;81.20
40257;DHT22;25977;45.462;9.210;2024-01-10T05:28:19;8.00;80.60
40257;DHT22;25977;45.462;9.210;2024-01-10T05:30:45;8.10;80.50
40257;DHT22;25977;45.462;9.210;2024-01-10T05:33:11;8.10;80.50
40257;DHT22;25977;45.462;9.210;2024-01-10T05:35:39;8.10;80.10
40257;DHT22;25977;45.462;9.210;2024-01-10T05:38:05;8.10;80.10
40257;DHT22;25977;45.462;9.210;2024-01-10T05:40:31;7.90;79.50
40257;DHT22;25977;45.462;9.210;2024-01-10T05:43:00;8.00;79.70
40257;DHT22;25977;45.462;9.210;2024-01-10T05:45:26;7.90;79.90
40257;DHT22;25977;45.462;9.210;2024-01-10T05:47:52;8.00;79.90
40257;DHT22;25977;45.462;9.210;2024-01-10T05:50:17;7.90;79.90
40257;DHT22;25977;45.462;9.210;2024-01-10T05:52:43;7.80;79.90
40257;DHT22;25977;45.462;9.210;2024-01-10T05:55:09;7.80;79.80
40257;DHT22;25977;45.462;9.210;2024-01-10T05:57:38;7.90;80.10
40257;DHT22;25977;45.462;9.210;2024-01-10T06:00:05;8.00;80.30
40257;DHT22;25977;45.462;9.210;2024-01-10T06:02:38;8.00;80.30
40257;DHT22;25977;45.462;9.210;2024-01-10T06:05:09;8.10;80.30
40257;DHT22;25977;45.462;9.210;2024-01-10T06:07:41;8.10;81.00
40257;DHT22;25977;45.462;9.210;2024-01-10T06:10:07;8.10;80.30
40257;DHT22;25977;45.462;9.210;2024-01-10T06:12:32;8.00;80.40
40257;DHT22;25977;45.462;9.210;2024-01-10T06:14:58;8.00;80.90
40257;DHT22;25977;45.462;9.210;2024-01-10T06:17:24;8.10;81.00
40257;DHT22;25977;45.462;9.210;2024-01-10T06:19:50;8.00;81.20
40257;DHT22;25977;45.462;9.210;2024-01-10T06:22:16;8.00;81.00
40257;DHT22;25977;45.462;9.210;2024-01-10T06:24:43;7.80;80.60
40257;DHT22;25977;45.462;9.210;2024-01-10T06:27:08;8.00;81.40
40257;DHT22;25977;45.462;9.210;2024-01-10T06:29:35;8.00;81.90
40257;DHT22;25977;45.462;9.210;2024-01-10T06:32:01;8.10;81.70
40257;DHT22;25977;45.462;9.210;2024-01-10T06:34:27;8.10;81.60
40257;DHT22;25977;45.462;9.210;2024-01-10T06:36:53;8.10;81.40
40257;DHT22;25977;45.462;9.210;2024-01-10T06:39:19;8.10;82.00
40257;DHT22;25977;45.462;9.210;2024-01-10T06:41:49;8.10;81.30
40257;DHT22;25977;45.462;9.210;2024-01-10T06:44:15;8.10;81.20
40257;DHT22;25977;45.462;9.210;2024-01-10T06:46:43;8.00;81.00
40257;DHT22;25977;45.462;9.210;2024-01-10T06:49:10;7.80;80.90
40257;DHT22;25977;45.462;9.210;2024-01-10T06:51:36;7.90;81.30
40257;DHT22;25977;45.462;9.210;2024-01-10T06:54:02;8.00;81.00
40257;DHT22;25977;45.462;9.210;2024-01-10T06:56:34;8.10;80.70
40257;DHT22;25977;45.462;9.210;2024-01-10T06:59:01;8.10;80.80
40257;DHT22;25977;45.462;9.210;2024-01-10T07:01:27;8.20;80.80
40257;DHT22;25977;45.462;9.210;2024-01-10T07:03:54;8.00;81.00
40257;DHT22;25977;45.462;9.210;2024-01-10T07:06:22;8.10;81.00
40257;DHT22;25977;45.462;9.210;2024-01-10T07:08:49;8.10;80.90
40257;DHT22;25977;45.462;9.210;2024-01-10T07:11:17;8.00;80.60
40257;DHT22;25977;45.462;9.210;2024-01-10T07:13:43;8.00;81.20
40257;DHT22;25977;45.462;9.210;2024-01-10T07:16:09;7.80;81.60
40257;DHT22;25977;45.462;9.210;2024-01-10T07:18:35;8.00;81.80
40257;DHT22;25977;45.462;9.210;2024-01-10T07:21:00;8.00;81.50
40257;DHT22;25977;45.462;9.210;2024-01-10T07:23:26;7.90;81.50
40257;DHT22;25977;45.462;9.210;2024-01-10T07:25:52;8.00;81.80
40257;DHT22;25977;45.462;9.210;2024-01-10T07:28:18;8.10;81.50
40257;DHT22;25977;45.462;9.210;2024-01-10T07:30:45;8.10;81.10
40257;DHT22;25977;45.462;9.210;2024-01-10T07:33:11;8.10;80.90
40257;DHT22;25977;45.462;9.210;2024-01-10T07:35:37;8.20;80.40
40257;DHT22;25977;45.462;9.210;2024-01-10T07:38:04;8.20;79.90
40257;DHT22;25977;45.462;9.210;2024-01-10T07:40:33;8.20;80.00
40257;DHT22;25977;45.462;9.210;2024-01-10T07:42:59;8.10;79.50
40257;DHT22;25977;45.462;9.210;2024-01-10T07:45:25;8.00;79.40
40257;DHT22;25977;45.462;9.210;2024-01-10T07:47:50;8.10;80.00
40257;DHT22;25977;45.462;9.210;2024-01-10T07:50:16;8.10;80.00
40257;DHT22;25977;45.462;9.210;2024-01-10T07:52:43;8.10;80.10
40257;DHT22;25977;45.462;9.210;2024-01-10T07:55:09;8.00;80.10
40257;DHT22;25977;45.462;9.210;2024-01-10T07:57:35;8.10;80.30
40257;DHT22;25977;45.462;9.210;2024-01-10T08:00:03;8.10;80.30
40257;DHT22;25977;45.462;9.210;2024-01-10T08:02:34;8.10;80.30
40257;DHT22;25977;45.462;9.210;2024-01-10T08:05:01;8.10;80.30
40257;DHT22;25977;45.462;9.210;2024-01-10T08:07:31;8.00;80.90
40257;DHT22;25977;45.462;9.210;2024-01-10T08:09:59;8.00;81.90
40257;DHT22;25977;45.462;9.210;2024-01-10T08:12:25;8.00;81.70
40257;DHT22;25977;45.462;9.210;2024-01-10T08:14:51;7.90;80.90
40257;DHT22;25977;45.462;9.210;2024-01-10T08:17:16;8.00;81.00
40257;DHT22;25977;45.462;9.210;2024-01-10T08:19:42;8.10;80.80
40257;DHT22;25977;45.462;9.210;2024-01-10T08:22:10;8.10;80.70
40257;DHT22;25977;45.462;9.210;2024-01-10T08:24:35;8.10;81.20
40257;DHT22;25977;45.462;9.210;2024-01-10T08:27:04;7.80;80.90
40257;DHT22;25977;45.462;9.210;2024-01-10T08:29:30;7.70;81.30
40257;DHT22;25977;45.462;9.210;2024-01-10T08:31:57;7.70;81.20
40257;DHT22;25977;45.462;9.210;2024-01-10T08:34:23;7.80;81.60
40257;DHT22;25977;45.462;9.210;2024-01-10T08:36:49;7.80;81.30
40257;DHT22;25977;45.462;9.210;2024-01-10T08:39:19;7.90;81.80
40257;DHT22;25977;45.462;9.210;2024-01-10T08:41:45;8.00;83.70
40257;DHT22;25977;45.462;9.210;2024-01-10T08:44:11;8.10;83.10
40257;DHT22;25977;45.462;9.210;2024-01-10T08:46:37;8.00;81.50
40257;DHT22;25977;45.462;9.210;2024-01-10T08:49:03;8.10;81.30
40257;DHT22;25977;45.462;9.210;2024-01-10T08:51:29;8.00;81.20
40257;DHT22;25977;45.462;9.210;2024-01-10T08:53:54;8.10;81.20
40257;DHT22;25977;45.462;9.210;2024-01-10T08:56:22;8.10;80.70
40257;DHT22;25977;45.462;9.210;2024-01-10T08:58:48;7.80;81.10
40257;DHT22;25977;45.462;9.210;2024-01-10T09:01:14;7.90;81.40
40257;DHT22;25977;45.462;9.210;2024-01-10T09:03:39;8.00;81.30
40257;DHT22;25977;45.462;9.210;2024-01-10T09:06:05;7.60;81.50
40257;DHT22;25977;45.462;9.210;2024-01-10T09:08:33;7.60;82.00
40257;DHT22;25977;45.462;9.210;2024-01-10T09:10:59;7.70;81.20
40257;DHT22;25977;45.462;9.210;2024-01-10T09:13:25;7.50;81.80
40257;DHT22;25977;45.462;9.210;2024-01-10T09:15:50;7.50;81.80
40257;DHT22;25977;45.462;9.210;2024-01-10T09:18:16;7.70;81.40
40257;DHT22;25977;45.462;9.210;2024-01-10T09:20:42;7.70;81.10
40257;DHT22;25977;45.462;9.210;2024-01-10T09:23:07;7.70;80.80
40257;DHT22;25977;45.462;9.210;2024-01-10T09:25:33;7.40;81.00
40257;DHT22;25977;45.462;9.210;2024-01-10T09:27:59;7.40;81.30
40257;DHT22;25977;45.462;9.210;2024-01-10T09:30:24;7.70;80.90
40257;DHT22;25977;45.462;9.210;2024-01-10T09:32:50;7.70;81.10
40257;DHT22;25977;45.462;9.210;2024-01-10T09:35:16;9.40;81.70
40257;DHT22;25977;45.462;9.210;2024-01-10T09:37:43;8.00;80.60
40257;DHT22;25977;45.462;9.210;2024-01-10T09:40:13;8.00;80.60
40257;DHT22;25977;45.462;9.210;2024-01-10T09:42:39;7.80;80.50
40257;DHT22;25977;45.462;9.210;2024-01-10T09:45:06;8.00;80.60
40257;DHT22;25977;45.462;9.210;2024-01-10T09:47:36;8.00;80.50
40257;DHT22;25977;45.462;9.210;2024-01-10T09:50:03;8.00;80.80
40257;DHT22;25977;45.462;9.210;2024-01-10T09:52:33;7.90;80.80
40257;DHT22;25977;45.462;9.210;2024-01-10T09:55:00;7.80;81.20
40257;DHT22;25977;45.462;9.210;2024-01-10T09:57:27;8.00;81.10
40257;DHT22;25977;45.462;9.210;2024-01-10T09:59:53;8.10;80.80
40257;DHT22;25977;45.462;9.210;2024-01-10T10:02:23;7.90;80.90
40257;DHT22;25977;45.462;9.210;2024-01-10T10:05:09;7.80;80.90
40257;DHT22;25977;45.462;9.210;2024-01-10T10:07:51;7.70;80.50
40257;DHT22;25977;45.462;9.210;2024-01-10T10:10:19;7.60;80.90
40257;DHT22;25977;45.462;9.210;2024-01-10T10:12:46;7.50;81.00
40257;DHT22;25977;45.462;9.210;2024-01-10T10:15:19;7.60;80.40
40257;DHT22;25977;45.462;9.210;2024-01-10T10:17:47;7.50;80.60
40257;DHT22;25977;45.462;9.210;2024-01-10T10:20:21;7.80;80.90
40257;DHT22;25977;45.462;9.210;2024-01-10T10:23:01;7.90;80.10
40257;DHT22;25977;45.462;9.210;2024-01-10T10:25:42;7.80;80.20
40257;DHT22;25977;45.462;9.210;2024-01-10T10:28:08;7.90;80.10
40257;DHT22;25977;45.462;9.210;2024-01-10T10:30:34;8.10;79.80
40257;DHT22;25977;45.462;9.210;2024-01-10T10:33:01;8.30;80.20
40257;DHT22;25977;45.462;9.210;2024-01-10T10:35:27;7.50;80.20
40257;DHT22;25977;45.462;9.210;2024-01-10T10:37:53;7.40;80.30
40257;DHT22;25977;45.462;9.210;2024-01-10T10:40:20;7.70;80.40
40257;DHT22;25977;45.462;9.210;2024-01-10T10:42:56;7.70;79.50
40257;DHT22;25977;45.462;9.210;2024-01-10T10:45:23;7.70;80.00
40257;DHT22;25977;45.462;9.210;2024-01-10T10:47:59;7.90;79.80
40257;DHT22;25977;45.462;9.210;2024-01-10T10:50:32;7.90;80.20
40257;DHT22;25977;45.462;9.210;2024-01-10T10:53:00;7.70;80.80
40257;DHT22;25977;45.462;9.210;2024-01-10T10:55:29;7.80;80.70
40257;DHT22;25977;45.462;9.210;2024-01-10T10:57:57;7.60;80.30
40257;DHT22;25977;45.462;9.210;2024-01-10T11:00:23;7.70;80.70
40257;DHT22;25977;45.462;9.210;2024-01-10T11:02:56;7.80;80.00
40257;DHT22;25977;45.462;9.210;2024-01-10T11:05:23;7.90;79.90
40257;DHT22;25977;45.462;9.210;2024-01-10T11:07:49;7.80;79.90
40257;DHT22;25977;45.462;9.210;2024-01-10T11:10:27;7.90;80.30
40257;DHT22;25977;45.462;9.210;2024-01-10T11:13:28;7.90;80.20
40257;DHT22;25977;45.462;9.210;2024-01-10T11:19:25;7.90;80.20
40257;DHT22;25977;45.462;9.210;2024-01-10T11:22:28;8.10;79.60
40257;DHT22;25977;45.462;9.210;2024-01-10T11:24:59;8.00;79.60
40257;DHT22;25977;45.462;9.210;2024-01-10T11:27:26;8.00;80.10
40257;DHT22;25977;45.462;9.210;2024-01-10T11:29:52;7.60;80.80
40257;DHT22;25977;45.462;9.210;2024-01-10T11:32:22;7.90;81.00
40257;DHT22;25977;45.462;9.210;2024-01-10T11:34:59;7.90;81.00
40257;DHT22;25977;45.462;9.210;2024-01-10T11:37:45;8.10;81.40
40257;DHT22;25977;45.462;9.210;2024-01-10T11:40:12;7.80;81.00
40257;DHT22;25977;45.462;9.210;2024-01-10T11:42:45;8.00;81.30
40257;DHT22;25977;45.462;9.210;2024-01-10T11:47:56;8.20;80.80
40257;DHT22;25977;45.462;9.210;2024-01-10T11:50:23;8.30;80.80
40257;DHT22;25977;45.462;9.210;2024-01-10T11:52:53;8.10;81.20
40257;DHT22;25977;45.462;9.210;2024-01-10T11:55:50;8.20;80.80
40257;DHT22;25977;45.462;9.210;2024-01-10T11:58:19;8.40;80.90
40257;DHT22;25977;45.462;9.210;2024-01-10T12:00:46;8.40;80.70
40257;DHT22;25977;45.462;9.210;2024-01-10T12:03:13;8.20;80.50
40257;DHT22;25977;45.462;9.210;2024-01-10T12:05:39;8.40;80.80
40257;DHT22;25977;45.462;9.210;2024-01-10T12:08:09;8.40;80.40
40257;DHT22;25977;45.462;9.210;2024-01-10T12:10:45;8.50;80.10
40257;DHT22;25977;45.462;9.210;2024-01-10T12:13:11;8.50;80.50
40257;DHT22;25977;45.462;9.210;2024-01-10T12:15:37;8.40;81.20
40257;DHT22;25977;45.462;9.210;2024-01-10T12:18:03;8.50;81.70
40257;DHT22;25977;45.462;9.210;2024-01-10T12:20:29;8.60;80.90
40257;DHT22;25977;45.462;9.210;2024-01-10T12:22:55;8.40;81.60
40257;DHT22;25977;45.462;9.210;2024-01-10T12:25:21;8.40;81.90
40257;DHT22;25977;45.462;9.210;2024-01-10T12:27:47;8.30;81.90
40257;DHT22;25977;45.462;9.210;2024-01-10T12:30:12;8.40;82.10
40257;DHT22;25977;45.462;9.210;2024-01-10T12:32:38;8.50;82.60
40257;DHT22;25977;45.462;9.210;2024-01-10T12:35:04;8.60;82.10
40257;DHT22;25977;45.462;9.210;2024-01-10T12:37:31;8.60;82.00
40257;DHT22;25977;45.462;9.210;2024-01-10T12:39:57;8.60;82.00
40257;DHT22;25977;45.462;9.210;2024-01-10T12:42:23;8.60;81.30
40257;DHT22;25977;45.462;9.210;2024-01-10T12:44:50;8.60;81.20
40257;DHT22;25977;45.462;9.210;2024-01-10T12:47:20;8.60;81.40
40257;DHT22;25977;45.462;9.210;2024-01-10T12:49:46;8.70;81.40
40257;DHT22;25977;45.462;9.210;2024-01-10T12:52:13;8.70;80.80
40257;DHT22;25977;45.462;9.210;2024-01-10T12:54:39;8.80;81.20
40257;DHT22;25977;45.462;9.210;2024-01-10T12:57:05;8.70;80.60
40257;DHT22;25977;45.462;9.210;2024-01-10T12:59:32;8.70;80.80
40257;DHT22;25977;45.462;9.210;2024-01-10T13:01:58;8.70;81.10
40257;DHT22;25977;45.462;9.210;2024-01-10T13:04:24;8.70;80.50
40257;DHT22;25977;45.462;9.210;2024-01-10T13:06:50;8.70;80.90
40257;DHT22;25977;45.462;9.210;2024-01-10T13:09:16;8.70;80.60
40257;DHT22;25977;45.462;9.210;2024-01-10T13:11:42;8.70;80.50
40257;DHT22;25977;45.462;9.210;2024-01-10T13:14:08;8.70;81.00
40257;DHT22;25977;45.462;9.210;2024-01-10T13:16:35;8.70;81.30
40257;DHT22;25977;45.462;9.210;2024-01-10T13:19:00;8.70;80.40
40257;DHT22;25977;45.462;9.210;2024-01-10T13:21:26;8.70;79.90
40257;DHT22;25977;45.462;9.210;2024-01-10T13:23:52;8.60;79.80
40257;DHT22;25977;45.462;9.210;2024-01-10T13:26:18;8.60;79.30
40257;DHT22;25977;45.462;9.210;2024-01-10T13:28:44;8.70;79.60
40257;DHT22;25977;45.462;9.210;2024-01-10T13:31:09;8.80;79.50
40257;DHT22;25977;45.462;9.210;2024-01-10T13:33:36;8.80;79.60
40257;DHT22;25977;45.462;9.210;2024-01-10T13:36:03;8.80;79.40
40257;DHT22;25977;45.462;9.210;2024-01-10T13:38:30;8.80;79.30
40257;DHT22;25977;45.462;9.210;2024-01-10T13:40:56;8.80;79.20
40257;DHT22;25977;45.462;9.210;2024-01-10T13:43:21;8.90;78.90
40257;DHT22;25977;45.462;9.210;2024-01-10T13:45:47;8.80;78.80
40257;DHT22;25977;45.462;9.210;2024-01-10T13:48:13;8.90;79.00
40257;DHT22;25977;45.462;9.210;2024-01-10T13:50:38;8.90;78.90
40257;DHT22;25977;45.462;9.210;2024-01-10T13:53:04;8.80;78.40
40257;DHT22;25977;45.462;9.210;2024-01-10T13:55:31;8.80;78.60
40257;DHT22;25977;45.462;9.210;2024-01-10T13:57:57;8.90;78.70
40257;DHT22;25977;45.462;9.210;2024-01-10T14:00:22;8.90;78.80
40257;DHT22;25977;45.462;9.210;2024-01-10T14:02:48;8.80;78.50
40257;DHT22;25977;45.462;9.210;2024-01-10T14:05:15;8.80;78.50
40257;DHT22;25977;45.462;9.210;2024-01-10T14:07:40;8.90;78.80
40257;DHT22;25977;45.462;9.210;2024-01-10T14:10:10;8.90;78.60
40257;DHT22;25977;45.462;9.210;2024-01-10T14:12:36;8.80;79.00
40257;DHT22;25977;45.462;9.210;2024-01-10T14:15:02;8.70;78.70
40257;DHT22;25977;45.462;9.210;2024-01-10T14:17:29;8.70;78.90
40257;DHT22;25977;45.462;9.210;2024-01-10T14:19:55;8.70;78.80
40257;DHT22;25977;45.462;9.210;2024-01-10T14:22:21;8.80;78.80
40257;DHT22;25977;45.462;9.210;2024-01-10T14:24:49;8.80;78.60
40257;DHT22;25977;45.462;9.210;2024-01-10T14:27:16;8.70;78.70
40257;DHT22;25977;45.462;9.210;2024-01-10T14:29:42;8.60;78.90
40257;DHT22;25977;45.462;9.210;2024-01-10T14:32:07;8.80;78.90
40257;DHT22;25977;45.462;9.210;2024-01-10T14:34:33;8.80;78.90
40257;DHT22;25977;45.462;9.210;2024-01-10T14:36:59;8.80;79.10
40257;DHT22;25977;45.462;9.210;2024-01-10T14:39:24;8.80;79.10
40257;DHT22;25977;45.462;9.210;2024-01-10T14:41:50;8.80;79.20
40257;DHT22;25977;45.462;9.210;2024-01-10T14:44:16;8.80;79.20
40257;DHT22;25977;45.462;9.210;2024-01-10T14:46:42;8.80;79.50
40257;DHT22;25977;45.462;9.210;2024-01-10T14:49:09;8.60;79.50
40257;DHT22;25977;45.462;9.210;2024-01-10T14:51:35;8.70;79.40
40257;DHT22;25977;45.462;9.210;2024-01-10T14:54:00;8.70;79.30
40257;DHT22;25977;45.462;9.210;2024-01-10T14:56:26;8.80;79.20
40257;DHT22;25977;45.462;9.210;2024-01-10T14:58:52;8.80;79.20
40257;DHT22;25977;45.462;9.210;2024-01-10T15:01:18;8.80;79.40
40257;DHT22;25977;45.462;9.210;2024-01-10T15:03:45;8.80;79.50
40257;DHT22;25977;45.462;9.210;2024-01-10T15:06:11;8.80;79.30
40257;DHT22;25977;45.462;9.210;2024-01-10T15:08:40;8.80;79.10
40257;DHT22;25977;45.462;9.210;2024-01-10T15:11:06;8.80;79.20
40257;DHT22;25977;45.462;9.210;2024-01-10T15:13:32;8.70;79.40
40257;DHT22;25977;45.462;9.210;2024-01-10T15:15:57;8.80;79.50
40257;DHT22;25977;45.462;9.210;2024-01-10T15:18:23;8.80;79.50
40257;DHT22;25977;45.462;9.210;2024-01-10T15:20:49;8.80;79.40
40257;DHT22;25977;45.462;9.210;2024-01-10T15:23:14;8.80;79.20
40257;DHT22;25977;45.462;9.210;2024-01-10T15:25:40;8.90;79.00
40257;DHT22;25977;45.462;9.210;2024-01-10T15:28:06;8.80;78.90
40257;DHT22;25977;45.462;9.210;2024-01-10T15:30:33;8.80;79.10
40257;DHT22;25977;45.462;9.210;2024-01-10T15:32:58;8.80;78.80
40257;DHT22;25977;45.462;9.210;2024-01-10T15:35:25;8.80;78.50
40257;DHT22;25977;45.462;9.210;2024-01-10T15:37:51;8.80;78.20
40257;DHT22;25977;45.462;9.210;2024-01-10T15:40:18;8.80;78.40
40257;DHT22;25977;45.462;9.210;2024-01-10T15:42:44;8.60;78.70
40257;DHT22;25977;45.462;9.210;2024-01-10T15:45:13;8.70;78.70
40257;DHT22;25977;45.462;9.210;2024-01-10T15:47:40;8.70;79.00
40257;DHT22;25977;45.462;9.210;2024-01-10T15:50:06;8.80;79.40